createdAt,value
2018-12-05T00:00:47.285Z,100.00
2018-12-05T00:03:16.303Z,100.00
2018-12-05T00:05:45.378Z,100.00
2018-12-05T00:08:20.936Z,100.00
2018-12-05T00:10:49.928Z,100.00
2018-12-05T00:13:18.769Z,100.00
2018-12-05T00:15:47.923Z,100.00
2018-12-05T00:18:16.696Z,100.00
2018-12-05T00:20:45.636Z,100.00
2018-12-05T00:23:14.478Z,100.00
2018-12-05T00:25:43.570Z,100.00
2018-12-05T00:28:12.356Z,100.00
2018-12-05T00:30:41.151Z,100.00
2018-12-05T00:33:10.271Z,100.00
2018-12-05T00:35:39.099Z,100.00
2018-12-05T00:38:07.987Z,100.00
2018-12-05T00:40:37.028Z,100.00
2018-12-05T00:43:05.941Z,100.00
2018-12-05T00:45:35.120Z,100.00
2018-12-05T00:48:04.327Z,100.00
2018-12-05T00:50:33.145Z,100.00
2018-12-05T00:53:01.955Z,100.00
2018-12-05T00:55:37.786Z,100.00
2018-12-05T00:58:06.663Z,100.00
2018-12-05T01:00:35.471Z,100.00
2018-12-05T01:03:04.379Z,100.00
2018-12-05T01:05:33.192Z,100.00
2018-12-05T01:08:02.512Z,100.00
2018-12-05T01:10:31.468Z,100.00
2018-12-05T01:13:00.601Z,100.00
2018-12-05T01:15:29.831Z,100.00
2018-12-05T01:17:58.930Z,100.00
2018-12-05T01:20:28.100Z,100.00
2018-12-05T01:22:57.092Z,100.00
2018-12-05T01:25:25.939Z,100.00
2018-12-05T01:27:55.085Z,100.00
2018-12-05T01:30:24.282Z,100.00
2018-12-05T01:32:53.499Z,100.00
2018-12-05T01:35:25.548Z,100.00
2018-12-05T01:37:54.744Z,100.00
2018-12-05T01:40:24.047Z,100.00
2018-12-05T01:42:52.867Z,100.00
2018-12-05T01:45:21.963Z,100.00
2018-12-05T01:47:51.019Z,100.00
2018-12-05T01:50:20.212Z,100.00
2018-12-05T01:52:49.091Z,100.00
2018-12-05T01:55:18.305Z,100.00
2018-12-05T01:57:47.406Z,100.00
2018-12-05T02:00:16.400Z,100.00
2018-12-05T02:02:45.491Z,100.00
2018-12-05T02:05:14.334Z,100.00
2018-12-05T02:07:43.684Z,100.00
2018-12-05T02:10:14.020Z,100.00
2018-12-05T02:12:43.098Z,100.00
2018-12-05T02:15:12.057Z,100.00
2018-12-05T02:17:41.495Z,100.00
2018-12-05T02:20:10.704Z,100.00
2018-12-05T02:22:39.672Z,100.00
2018-12-05T02:25:08.895Z,100.00
2018-12-05T02:27:37.673Z,100.00
2018-12-05T02:30:07.388Z,100.00
2018-12-05T02:32:36.276Z,100.00
2018-12-05T02:35:05.888Z,100.00
2018-12-05T02:37:34.700Z,100.00
2018-12-05T02:40:03.773Z,100.00
2018-12-05T02:42:32.579Z,100.00
2018-12-05T02:45:01.401Z,100.00
2018-12-05T02:47:30.236Z,100.00
2018-12-05T02:49:59.355Z,100.00
2018-12-05T02:52:28.427Z,100.00
2018-12-05T02:54:57.635Z,100.00
2018-12-05T02:57:26.540Z,100.00
2018-12-05T02:59:55.488Z,100.00
2018-12-05T03:02:24.728Z,100.00
2018-12-05T03:04:53.911Z,100.00
2018-12-05T03:07:22.771Z,100.00
2018-12-05T03:09:51.958Z,100.00
2018-12-05T03:12:21.095Z,100.00
2018-12-05T03:14:49.969Z,100.00
2018-12-05T03:17:19.621Z,100.00
2018-12-05T03:19:48.523Z,100.00
2018-12-05T03:22:17.987Z,100.00
2018-12-05T03:24:46.832Z,100.00
2018-12-05T03:27:15.800Z,100.00
2018-12-05T03:29:44.871Z,100.00
2018-12-05T03:32:14.068Z,100.00
2018-12-05T03:34:42.903Z,100.00
2018-12-05T03:37:12.059Z,100.00
2018-12-05T03:39:40.885Z,100.00
2018-12-05T03:42:09.787Z,100.00
2018-12-05T03:44:38.941Z,100.00
2018-12-05T03:47:08.128Z,100.00
2018-12-05T03:49:37.059Z,100.00
2018-12-05T03:52:05.999Z,100.00
2018-12-05T03:54:34.846Z,100.00
2018-12-05T03:57:03.667Z,100.00
2018-12-05T03:59:33.660Z,100.00
2018-12-05T04:02:02.498Z,100.00
2018-12-05T04:04:31.846Z,100.00
2018-12-05T04:07:00.911Z,100.00
2018-12-05T04:09:29.762Z,100.00
2018-12-05T04:11:58.621Z,100.00
2018-12-05T04:14:27.528Z,100.00
2018-12-05T04:16:56.548Z,100.00
2018-12-05T04:19:25.682Z,100.00
2018-12-05T04:21:54.863Z,100.00
2018-12-05T04:24:23.711Z,100.00
2018-12-05T04:26:53.465Z,100.00
2018-12-05T04:29:22.666Z,100.00
2018-12-05T04:31:51.770Z,100.00
2018-12-05T04:34:20.732Z,100.00
2018-12-05T04:36:50.157Z,100.00
2018-12-05T04:39:19.351Z,100.00
2018-12-05T04:41:48.446Z,100.00
2018-12-05T04:44:17.324Z,100.00
2018-12-05T04:46:46.748Z,100.00
2018-12-05T04:49:15.840Z,100.00
2018-12-05T04:51:44.940Z,100.00
2018-12-05T04:54:15.987Z,100.00
2018-12-05T04:56:45.174Z,100.00
2018-12-05T04:59:14.199Z,100.00
2018-12-05T05:01:43.471Z,100.00
2018-12-05T05:04:12.567Z,100.00
2018-12-05T05:06:41.936Z,100.00
2018-12-05T05:09:11.447Z,100.00
2018-12-05T05:11:40.257Z,100.00
2018-12-05T05:14:09.484Z,100.00
2018-12-05T05:16:38.668Z,100.00
2018-12-05T05:19:07.491Z,100.00
2018-12-05T05:21:36.772Z,100.00
2018-12-05T05:24:05.951Z,100.00
2018-12-05T05:26:34.981Z,100.00
2018-12-05T05:29:04.045Z,100.00
2018-12-05T05:31:33.124Z,100.00
2018-12-05T05:34:01.912Z,100.00
2018-12-05T05:36:30.752Z,100.00
2018-12-05T05:38:59.533Z,100.00
2018-12-05T05:41:28.686Z,100.00
2018-12-05T05:43:57.492Z,100.00
2018-12-05T05:46:26.315Z,100.00
2018-12-05T05:48:55.379Z,100.00
2018-12-05T05:51:24.481Z,100.00
2018-12-05T05:53:53.354Z,100.00
2018-12-05T05:56:22.172Z,100.00
2018-12-05T05:58:51.257Z,100.00
2018-12-05T06:01:20.071Z,100.00
2018-12-05T06:03:49.127Z,100.00
2018-12-05T06:06:17.936Z,100.00
2018-12-05T06:08:48.139Z,100.00
2018-12-05T06:11:17.331Z,100.00
2018-12-05T06:13:46.299Z,100.00
2018-12-05T06:16:15.442Z,100.00
2018-12-05T06:18:44.271Z,100.00
2018-12-05T06:21:13.146Z,100.00
2018-12-05T06:23:41.955Z,100.00
2018-12-05T06:26:11.116Z,100.00
2018-12-05T06:28:40.191Z,100.00
2018-12-05T06:31:09.063Z,100.00
2018-12-05T06:33:38.188Z,100.00
2018-12-05T06:36:07.226Z,100.00
2018-12-05T06:38:36.100Z,100.00
2018-12-05T06:41:05.368Z,100.00
2018-12-05T06:43:34.859Z,100.00
2018-12-05T06:46:04.060Z,100.00
2018-12-05T06:48:33.164Z,100.00
2018-12-05T06:51:02.467Z,100.00
2018-12-05T06:53:31.562Z,100.00
2018-12-05T06:56:00.755Z,100.00
2018-12-05T06:58:29.851Z,100.00
2018-12-05T07:00:58.711Z,100.00
2018-12-05T07:03:27.915Z,100.00
2018-12-05T07:05:57.040Z,100.00
2018-12-05T07:08:26.146Z,100.00
2018-12-05T07:10:55.849Z,100.00
2018-12-05T07:13:24.775Z,100.00
2018-12-05T07:15:53.835Z,100.00
2018-12-05T07:18:23.095Z,100.00
2018-12-05T07:20:52.531Z,100.00
2018-12-05T07:23:21.468Z,100.00
2018-12-05T07:25:50.519Z,100.00
2018-12-05T07:28:19.567Z,100.00
2018-12-05T07:30:48.716Z,100.00
2018-12-05T07:33:17.807Z,100.00
2018-12-05T07:35:47.007Z,100.00
2018-12-05T07:38:19.658Z,100.00
2018-12-05T07:40:47.959Z,100.00
2018-12-05T07:43:16.794Z,100.00
2018-12-05T07:45:45.702Z,100.00
2018-12-05T07:48:14.752Z,100.00
2018-12-05T07:50:43.979Z,100.00
2018-12-05T07:53:12.908Z,100.00
2018-12-05T07:55:42.124Z,100.00
2018-12-05T07:58:11.323Z,100.00
2018-12-05T08:00:40.319Z,100.00
2018-12-05T08:03:09.279Z,100.00
2018-12-05T08:05:38.166Z,100.00
2018-12-05T08:08:07.056Z,100.00
2018-12-05T08:10:36.191Z,100.00
2018-12-05T08:13:05.293Z,100.00
2018-12-05T08:15:34.375Z,100.00
2018-12-05T08:18:03.896Z,100.00
2018-12-05T08:20:32.982Z,100.00
2018-12-05T08:23:02.275Z,99.86
2018-12-05T08:25:31.417Z,99.73
2018-12-05T08:28:00.435Z,98.88
2018-12-05T08:30:29.688Z,97.49
2018-12-05T08:32:58.660Z,97.74
2018-12-05T08:35:27.855Z,96.95
2018-12-05T08:37:57.067Z,96.35
2018-12-05T08:40:25.875Z,95.07
2018-12-05T08:42:54.744Z,95.21
2018-12-05T08:45:23.836Z,95.66
2018-12-05T08:47:52.685Z,95.55
2018-12-05T08:50:21.560Z,94.74
2018-12-05T08:52:50.612Z,94.23
2018-12-05T08:55:19.818Z,92.98
2018-12-05T08:57:48.777Z,93.22
2018-12-05T09:00:18.425Z,92.15
2018-12-05T09:02:47.717Z,91.40
2018-12-05T09:05:16.587Z,91.00
2018-12-05T09:07:45.404Z,90.38
2018-12-05T09:10:14.497Z,89.61
2018-12-05T09:12:43.935Z,88.33
2018-12-05T09:15:13.137Z,87.23
2018-12-05T09:17:42.231Z,85.67
2018-12-05T09:20:11.501Z,84.64
2018-12-05T09:22:41.418Z,85.20
2018-12-05T09:25:10.603Z,84.14
2018-12-05T09:27:39.574Z,83.50
2018-12-05T09:30:08.883Z,83.62
2018-12-05T09:32:37.993Z,83.36
2018-12-05T09:35:07.495Z,83.41
2018-12-05T09:37:36.660Z,82.79
2018-12-05T09:40:05.995Z,82.71
2018-12-05T09:42:35.202Z,82.84
2018-12-05T09:45:04.235Z,81.52
2018-12-05T09:47:33.112Z,81.25
2018-12-05T09:50:02.322Z,80.70
2018-12-05T09:52:31.484Z,78.55
2018-12-05T09:55:00.577Z,78.47
2018-12-05T09:57:29.821Z,79.40
2018-12-05T09:59:59.084Z,78.23
2018-12-05T10:02:28.187Z,77.81
2018-12-05T10:04:57.274Z,77.30
2018-12-05T10:07:26.621Z,75.95
2018-12-05T10:09:56.888Z,75.00
2018-12-05T10:12:25.823Z,74.86
2018-12-05T10:14:54.672Z,76.19
2018-12-05T10:17:23.906Z,76.08
2018-12-05T10:19:52.709Z,76.98
2018-12-05T10:22:21.483Z,76.22
2018-12-05T10:24:50.756Z,75.83
2018-12-05T10:27:19.848Z,75.69
2018-12-05T10:29:49.054Z,75.33
2018-12-05T10:32:18.318Z,75.43
2018-12-05T10:34:47.108Z,74.99
2018-12-05T10:37:16.230Z,74.59
2018-12-05T10:39:45.019Z,74.96
2018-12-05T10:42:14.463Z,74.74
2018-12-05T10:44:50.250Z,73.57
2018-12-05T10:47:19.370Z,73.84
2018-12-05T10:49:54.724Z,73.36
2018-12-05T10:52:23.706Z,72.55
2018-12-05T10:54:52.763Z,73.03
2018-12-05T10:57:22.003Z,72.95
2018-12-05T10:59:50.859Z,72.68
2018-12-05T11:02:25.133Z,72.46
2018-12-05T11:04:59.830Z,72.37
2018-12-05T11:07:34.066Z,72.02
2018-12-05T11:10:08.565Z,70.94
2018-12-05T11:12:42.688Z,70.26
2018-12-05T11:15:16.980Z,70.13
2018-12-05T11:17:51.042Z,69.54
2018-12-05T11:20:25.290Z,70.28
2018-12-05T11:22:59.590Z,68.29
2018-12-05T11:25:28.670Z,68.55
2018-12-05T11:27:57.843Z,68.66
2018-12-05T11:30:26.883Z,68.83
2018-12-05T11:32:56.000Z,68.37
2018-12-05T11:35:25.459Z,68.21
2018-12-05T11:37:54.640Z,68.11
2018-12-05T11:40:23.878Z,67.27
2018-12-05T11:42:52.966Z,68.23
2018-12-05T11:45:22.532Z,68.19
2018-12-05T11:47:51.645Z,68.72
2018-12-05T11:50:20.833Z,68.26
2018-12-05T11:52:49.952Z,67.69
2018-12-05T11:55:19.201Z,68.33
2018-12-05T11:57:48.439Z,66.92
2018-12-05T12:00:17.403Z,67.33
2018-12-05T12:02:46.206Z,67.21
2018-12-05T12:05:15.312Z,67.54
2018-12-05T12:07:44.413Z,67.57
2018-12-05T12:10:14.119Z,66.17
2018-12-05T12:12:48.264Z,67.06
2018-12-05T12:15:17.095Z,67.09
2018-12-05T12:17:46.044Z,66.05
2018-12-05T12:20:14.833Z,66.76
2018-12-05T12:22:44.372Z,67.17
2018-12-05T12:25:13.531Z,67.38
2018-12-05T12:27:42.296Z,67.78
2018-12-05T12:30:15.881Z,67.89
2018-12-05T12:32:42.410Z,68.12
2018-12-05T12:35:11.533Z,67.77
2018-12-05T12:37:40.752Z,67.85
2018-12-05T12:40:10.232Z,67.26
2018-12-05T12:42:39.323Z,67.20
2018-12-05T12:45:08.605Z,66.44
2018-12-05T12:47:37.950Z,66.46
2018-12-05T12:50:07.961Z,66.61
2018-12-05T12:52:37.156Z,66.28
2018-12-05T12:55:07.197Z,66.14
2018-12-05T12:57:36.273Z,65.49
2018-12-05T13:00:07.175Z,65.97
2018-12-05T13:02:36.291Z,66.44
2018-12-05T13:05:06.818Z,66.78
2018-12-05T13:07:35.578Z,67.06
2018-12-05T13:10:05.315Z,67.21
2018-12-05T13:12:36.047Z,66.26
2018-12-05T13:15:05.707Z,67.03
2018-12-05T13:17:34.513Z,67.60
2018-12-05T13:20:03.649Z,68.64
2018-12-05T13:22:32.515Z,69.77
2018-12-05T13:25:01.541Z,69.74
2018-12-05T13:27:31.253Z,69.86
2018-12-05T13:30:00.460Z,70.35
2018-12-05T13:32:29.276Z,70.81
2018-12-05T13:34:58.317Z,70.35
2018-12-05T13:37:27.095Z,71.24
2018-12-05T13:39:56.310Z,71.42
2018-12-05T13:42:25.288Z,71.76
2018-12-05T13:44:54.603Z,71.06
2018-12-05T13:47:23.811Z,71.72
2018-12-05T13:49:52.648Z,71.42
2018-12-05T13:52:21.709Z,71.37
2018-12-05T13:54:51.353Z,71.21
2018-12-05T13:57:20.595Z,71.71
2018-12-05T13:59:49.715Z,71.45
2018-12-05T14:02:18.803Z,71.57
2018-12-05T14:04:47.636Z,71.98
2018-12-05T14:07:16.459Z,72.30
2018-12-05T14:09:45.375Z,72.43
2018-12-05T14:12:19.583Z,72.11
2018-12-05T14:14:48.671Z,72.58
2018-12-05T14:17:17.877Z,73.04
2018-12-05T14:19:46.744Z,73.42
2018-12-05T14:22:15.766Z,73.02
2018-12-05T14:24:44.855Z,73.59
2018-12-05T14:27:13.792Z,73.82
2018-12-05T14:29:42.724Z,73.68
2018-12-05T14:32:11.726Z,73.86
2018-12-05T14:34:40.827Z,73.55
2018-12-05T14:37:09.779Z,73.43
2018-12-05T14:39:38.912Z,73.89
2018-12-05T14:42:08.014Z,74.63
2018-12-05T14:44:36.928Z,74.30
2018-12-05T14:47:06.111Z,73.72
2018-12-05T14:49:35.407Z,74.00
2018-12-05T14:52:04.660Z,74.07
2018-12-05T14:54:33.506Z,74.14
2018-12-05T14:57:02.736Z,74.68
2018-12-05T14:59:31.561Z,74.74
2018-12-05T15:02:00.572Z,74.79
2018-12-05T15:04:29.420Z,74.17
2018-12-05T15:06:58.529Z,74.97
2018-12-05T15:09:27.831Z,74.37
2018-12-05T15:11:57.012Z,75.37
2018-12-05T15:14:26.258Z,75.24
2018-12-05T15:16:55.459Z,76.49
2018-12-05T15:19:24.468Z,76.44
2018-12-05T15:21:53.347Z,76.50
2018-12-05T15:24:22.585Z,76.84
2018-12-05T15:26:51.493Z,77.29
2018-12-05T15:29:20.743Z,77.04
2018-12-05T15:31:49.593Z,77.05
2018-12-05T15:34:18.399Z,76.68
2018-12-05T15:36:47.392Z,77.40
2018-12-05T15:39:16.283Z,77.64
2018-12-05T15:41:45.218Z,77.07
2018-12-05T15:44:14.300Z,76.54
2018-12-05T15:46:43.322Z,77.09
2018-12-05T15:49:12.414Z,77.21
2018-12-05T15:51:41.589Z,77.21
2018-12-05T15:54:10.746Z,76.80
2018-12-05T15:56:39.694Z,76.03
2018-12-05T15:59:08.924Z,76.48
2018-12-05T16:01:38.078Z,75.63
2018-12-05T16:04:07.383Z,76.03
2018-12-05T16:06:36.876Z,75.94
2018-12-05T16:09:07.999Z,76.45
2018-12-05T16:11:37.755Z,76.40
2018-12-05T16:14:06.884Z,76.16
2018-12-05T16:16:35.902Z,76.16
2018-12-05T16:19:05.222Z,76.14
2018-12-05T16:21:34.426Z,75.31
2018-12-05T16:24:03.516Z,75.59
2018-12-05T16:26:33.531Z,75.71
2018-12-05T16:29:02.411Z,75.51
2018-12-05T16:31:31.246Z,75.55
2018-12-05T16:34:00.500Z,75.80
2018-12-05T16:36:29.546Z,76.24
2018-12-05T16:38:59.372Z,76.07
2018-12-05T16:41:29.149Z,75.91
2018-12-05T16:43:58.641Z,75.50
2018-12-05T16:46:27.831Z,75.55
2018-12-05T16:48:58.984Z,75.57
2018-12-05T16:51:28.921Z,75.15
2018-12-05T16:53:58.122Z,75.56
2018-12-05T16:56:31.820Z,75.75
2018-12-05T16:59:01.002Z,74.81
2018-12-05T17:01:30.095Z,74.96
2018-12-05T17:03:59.059Z,74.36
2018-12-05T17:06:28.025Z,74.74
2018-12-05T17:08:57.172Z,74.12
2018-12-05T17:11:26.107Z,74.33
2018-12-05T17:13:55.268Z,74.36
2018-12-05T17:16:24.367Z,74.45
2018-12-05T17:18:53.656Z,73.96
2018-12-05T17:21:22.624Z,74.29
2018-12-05T17:23:51.897Z,74.64
2018-12-05T17:26:21.274Z,73.70
2018-12-05T17:28:50.528Z,73.11
2018-12-05T17:31:19.381Z,73.49
2018-12-05T17:33:49.423Z,72.55
2018-12-05T17:36:18.678Z,73.01
2018-12-05T17:38:47.474Z,72.46
2018-12-05T17:41:16.708Z,72.22
2018-12-05T17:43:45.950Z,72.75
2018-12-05T17:46:15.044Z,72.83
2018-12-05T17:48:43.881Z,72.49
2018-12-05T17:51:13.033Z,72.50
2018-12-05T17:53:42.200Z,72.18
2018-12-05T17:56:11.135Z,71.93
2018-12-05T17:58:40.229Z,72.30
2018-12-05T18:01:09.059Z,72.02
2018-12-05T18:03:38.271Z,72.00
2018-12-05T18:06:07.294Z,71.53
2018-12-05T18:08:36.127Z,71.61
2018-12-05T18:11:04.930Z,70.76
2018-12-05T18:13:34.075Z,70.13
2018-12-05T18:16:02.867Z,70.39
2018-12-05T18:18:32.059Z,70.26
2018-12-05T18:21:01.266Z,70.10
2018-12-05T18:23:30.088Z,69.79
2018-12-05T18:25:59.041Z,69.87
2018-12-05T18:28:28.348Z,70.36
2018-12-05T18:30:58.100Z,69.74
2018-12-05T18:33:27.394Z,69.84
2018-12-05T18:35:56.756Z,69.70
2018-12-05T18:38:25.643Z,68.92
2018-12-05T18:40:55.065Z,68.92
2018-12-05T18:43:24.356Z,68.97
2018-12-05T18:45:53.488Z,68.91
2018-12-05T18:48:22.632Z,69.12
2018-12-05T18:50:52.251Z,68.52
2018-12-05T18:53:21.114Z,68.56
2018-12-05T18:55:50.547Z,68.76
2018-12-05T18:58:19.756Z,67.61
2018-12-05T19:00:48.674Z,68.48
2018-12-05T19:03:17.740Z,68.08
2018-12-05T19:05:46.824Z,68.33
2018-12-05T19:08:15.813Z,68.61
2018-12-05T19:10:44.632Z,68.46
2018-12-05T19:13:13.973Z,68.66
2018-12-05T19:15:43.216Z,67.61
2018-12-05T19:18:12.321Z,68.16
2018-12-05T19:20:41.160Z,67.71
2018-12-05T19:23:10.412Z,67.24
2018-12-05T19:25:39.500Z,68.34
2018-12-05T19:28:08.637Z,68.18
2018-12-05T19:30:37.488Z,68.05
2018-12-05T19:33:06.825Z,67.77
2018-12-05T19:35:35.636Z,67.70
2018-12-05T19:38:05.079Z,68.29
2018-12-05T19:40:33.931Z,67.73
2018-12-05T19:43:03.055Z,67.94
2018-12-05T19:45:31.841Z,68.17
2018-12-05T19:48:00.767Z,67.37
2018-12-05T19:50:29.948Z,68.22
2018-12-05T19:52:59.093Z,68.26
2018-12-05T19:55:27.931Z,67.88
2018-12-05T19:58:03.574Z,68.12
2018-12-05T20:00:32.360Z,68.33
2018-12-05T20:03:01.283Z,67.99
2018-12-05T20:05:30.164Z,68.02
2018-12-05T20:07:59.101Z,67.98
2018-12-05T20:10:27.996Z,67.63
2018-12-05T20:12:57.127Z,67.49
2018-12-05T20:15:26.319Z,67.65
2018-12-05T20:17:55.092Z,68.11
2018-12-05T20:20:24.315Z,68.17
2018-12-05T20:22:53.403Z,68.35
2018-12-05T20:25:22.444Z,68.85
2018-12-05T20:27:51.699Z,68.08
2018-12-05T20:30:20.800Z,68.22
2018-12-05T20:32:49.900Z,68.28
2018-12-05T20:35:18.727Z,68.45
2018-12-05T20:37:47.792Z,68.76
2018-12-05T20:40:16.880Z,68.81
2018-12-05T20:42:45.750Z,69.21
2018-12-05T20:45:14.963Z,69.54
2018-12-05T20:47:44.091Z,69.11
2018-12-05T20:50:13.572Z,68.66
2018-12-05T20:52:42.716Z,69.15
2018-12-05T20:55:14.804Z,68.49
2018-12-05T20:57:44.028Z,68.89
2018-12-05T21:00:19.287Z,68.95
2018-12-05T21:02:48.264Z,69.39
2018-12-05T21:05:17.350Z,69.06
2018-12-05T21:07:46.448Z,69.06
2018-12-05T21:10:15.960Z,68.55
2018-12-05T21:12:51.599Z,68.84
2018-12-05T21:15:20.721Z,69.45
2018-12-05T21:17:50.219Z,69.21
2018-12-05T21:20:19.142Z,68.98
2018-12-05T21:22:48.376Z,69.03
2018-12-05T21:25:17.263Z,69.17
2018-12-05T21:27:46.404Z,69.17
2018-12-05T21:30:15.598Z,69.11
2018-12-05T21:32:44.437Z,69.50
2018-12-05T21:35:13.478Z,68.81
2018-12-05T21:37:42.763Z,69.06
2018-12-05T21:40:11.767Z,69.32
2018-12-05T21:42:40.987Z,69.36
2018-12-05T21:45:10.423Z,68.75
2018-12-05T21:47:40.531Z,68.77
2018-12-05T21:50:09.686Z,69.08
2018-12-05T21:52:38.900Z,69.25
2018-12-05T21:55:08.494Z,69.79
2018-12-05T21:57:37.478Z,69.95
2018-12-05T22:00:09.737Z,68.82
2018-12-05T22:02:38.971Z,69.79
2018-12-05T22:05:09.464Z,69.80
2018-12-05T22:07:38.586Z,69.71
2018-12-05T22:10:09.356Z,69.75
2018-12-05T22:12:38.412Z,70.21
2018-12-05T22:15:08.115Z,70.10
2018-12-05T22:17:37.224Z,70.31
2018-12-05T22:20:07.615Z,70.87
2018-12-05T22:22:36.852Z,70.54
2018-12-05T22:25:06.295Z,70.63
2018-12-05T22:27:35.457Z,71.26
2018-12-05T22:30:04.912Z,69.85
2018-12-05T22:32:34.159Z,69.76
2018-12-05T22:35:03.258Z,70.65
2018-12-05T22:37:32.547Z,70.98
2018-12-05T22:40:01.544Z,70.91
2018-12-05T22:42:30.632Z,70.55
2018-12-05T22:44:59.732Z,71.02
2018-12-05T22:47:28.508Z,71.23
2018-12-05T22:49:57.620Z,71.33
2018-12-05T22:52:26.427Z,71.12
2018-12-05T22:54:55.340Z,70.85
2018-12-05T22:57:24.397Z,71.11
2018-12-05T22:59:53.491Z,70.89
2018-12-05T23:02:28.912Z,71.10
2018-12-05T23:04:58.177Z,71.60
2018-12-05T23:07:26.971Z,70.68
2018-12-05T23:09:55.927Z,71.00
2018-12-05T23:12:25.007Z,70.75
2018-12-05T23:14:53.785Z,70.95
2018-12-05T23:17:22.971Z,70.73
2018-12-05T23:19:52.111Z,70.77
2018-12-05T23:22:21.719Z,71.21
2018-12-05T23:24:50.560Z,71.24
2018-12-05T23:27:19.420Z,71.23
2018-12-05T23:29:48.494Z,71.37
2018-12-05T23:32:17.251Z,71.73
2018-12-05T23:34:46.259Z,71.31
2018-12-05T23:37:15.307Z,71.40
2018-12-05T23:39:44.083Z,71.91
2018-12-05T23:42:13.240Z,72.10
2018-12-05T23:44:42.067Z,71.89
2018-12-05T23:47:11.451Z,71.81
2018-12-05T23:49:40.445Z,71.98
2018-12-05T23:52:09.859Z,72.03
2018-12-05T23:54:39.023Z,72.43
2018-12-05T23:57:08.231Z,72.46
2018-12-05T23:59:37.424Z,72.82
